createdAt,value
2018-05-17T00:02:14.825Z,46.80
2018-05-17T00:04:42.287Z,36.37
2018-05-17T00:07:09.704Z,42.80
2018-05-17T00:09:37.964Z,35.50
2018-05-17T00:12:05.420Z,45.43
2018-05-17T00:14:32.829Z,43.30
2018-05-17T00:17:00.370Z,42.53
2018-05-17T00:19:27.782Z,47.83
2018-05-17T00:21:55.199Z,35.20
2018-05-17T00:24:22.620Z,32.90
2018-05-17T00:26:50.812Z,33.73
2018-05-17T00:29:19.004Z,38.30
2018-05-17T00:31:47.211Z,37.33
2018-05-17T00:34:14.650Z,48.60
2018-05-17T00:36:42.860Z,37.43
2018-05-17T00:39:10.272Z,45.07
2018-05-17T00:41:37.685Z,33.53
2018-05-17T00:44:05.860Z,36.93
2018-05-17T00:46:34.044Z,53.20
2018-05-17T00:49:03.149Z,40.17
2018-05-17T00:51:31.336Z,37.13
2018-05-17T00:53:59.517Z,35.70
2018-05-17T00:56:26.946Z,46.30
2018-05-17T00:58:54.427Z,48.37
2018-05-17T01:01:21.913Z,43.00
2018-05-17T01:03:49.340Z,50.20
2018-05-17T01:06:16.747Z,44.00
2018-05-17T01:08:44.269Z,42.70
2018-05-17T01:11:12.431Z,37.20
2018-05-17T01:13:40.616Z,46.53
2018-05-17T01:16:08.797Z,46.20
2018-05-17T01:18:36.973Z,50.97
2018-05-17T01:21:04.481Z,53.13
2018-05-17T01:23:31.888Z,41.93
2018-05-17T01:25:59.393Z,56.97
2018-05-17T01:28:27.701Z,39.37
2018-05-17T01:30:55.116Z,44.50
2018-05-17T01:33:22.533Z,49.37
2018-05-17T01:35:49.966Z,41.63
2018-05-17T01:38:32.252Z,40.20
2018-05-17T01:40:59.700Z,45.97
2018-05-17T01:43:27.105Z,40.47
2018-05-17T01:45:54.541Z,42.23
2018-05-17T01:48:21.964Z,47.83
2018-05-17T01:50:49.476Z,41.20
2018-05-17T01:53:16.940Z,46.27
2018-05-17T01:55:44.376Z,42.57
2018-05-17T01:58:12.560Z,45.10
2018-05-17T02:00:40.741Z,42.50
2018-05-17T02:03:08.155Z,50.70
2018-05-17T02:05:35.568Z,42.53
2018-05-17T02:08:02.990Z,38.63
2018-05-17T02:10:30.416Z,47.67
2018-05-17T02:12:58.592Z,43.67
2018-05-17T02:15:26.012Z,49.57
2018-05-17T02:17:53.424Z,44.63
2018-05-17T02:20:20.832Z,49.80
2018-05-17T02:22:48.257Z,44.60
2018-05-17T02:25:15.808Z,44.83
2018-05-17T02:27:43.227Z,45.73
2018-05-17T02:30:10.722Z,45.13
2018-05-17T02:32:38.171Z,52.80
2018-05-17T02:35:06.350Z,38.67
2018-05-17T02:37:35.468Z,48.73
2018-05-17T02:40:02.905Z,45.03
2018-05-17T02:42:30.531Z,56.77
2018-05-17T02:44:57.942Z,45.33
2018-05-17T02:47:25.375Z,43.23
2018-05-17T02:49:52.822Z,45.80
2018-05-17T02:52:20.249Z,49.10
2018-05-17T02:54:47.763Z,55.10
2018-05-17T02:57:15.241Z,48.07
2018-05-17T02:59:42.655Z,57.90
2018-05-17T03:02:10.072Z,57.80
2018-05-17T03:04:37.488Z,47.60
2018-05-17T03:07:06.317Z,49.88
2018-05-17T03:09:35.447Z,73.67
2018-05-17T03:12:02.861Z,46.50
2018-05-17T03:14:30.281Z,48.90
2018-05-17T03:16:57.761Z,42.37
2018-05-17T03:19:25.200Z,45.23
2018-05-17T03:21:52.680Z,59.63
2018-05-17T03:24:20.156Z,42.53
2018-05-17T03:26:47.580Z,52.30
2018-05-17T03:29:15.146Z,51.47
2018-05-17T03:31:42.563Z,55.30
2018-05-17T03:34:09.990Z,48.47
2018-05-17T03:36:37.511Z,69.20
2018-05-17T03:39:04.934Z,41.53
2018-05-17T03:41:32.344Z,41.83
2018-05-17T03:43:59.762Z,50.07
2018-05-17T03:46:27.953Z,48.17
2018-05-17T03:48:55.371Z,58.57
2018-05-17T03:51:22.784Z,52.70
2018-05-17T03:53:50.207Z,49.20
2018-05-17T03:56:17.639Z,61.60
2018-05-17T03:58:45.076Z,51.17
2018-05-17T04:01:24.270Z,48.63
2018-05-17T04:04:03.621Z,52.87
2018-05-17T04:06:42.409Z,53.57
2018-05-17T04:09:09.838Z,47.13
2018-05-17T04:11:37.244Z,53.93
2018-05-17T04:14:04.683Z,57.77
2018-05-17T04:16:32.132Z,55.10
2018-05-17T04:18:59.547Z,55.03
2018-05-17T04:21:26.968Z,62.17
2018-05-17T04:23:54.396Z,71.73
2018-05-17T04:26:22.622Z,58.07
2018-05-17T04:28:50.036Z,63.33
2018-05-17T04:31:17.574Z,50.13
2018-05-17T04:33:45.047Z,60.90
2018-05-17T04:36:12.512Z,55.43
2018-05-17T04:38:39.974Z,51.13
2018-05-17T04:41:07.412Z,60.23
2018-05-17T04:43:34.824Z,47.33
2018-05-17T04:46:02.285Z,54.93
2018-05-17T04:48:29.700Z,62.83
2018-05-17T04:50:57.121Z,58.47
2018-05-17T04:53:24.549Z,63.60
2018-05-17T04:55:52.756Z,44.00
2018-05-17T04:58:20.336Z,46.90
2018-05-17T05:00:48.544Z,57.33
2018-05-17T05:03:15.997Z,55.77
2018-05-17T05:05:43.425Z,45.07
2018-05-17T05:08:11.627Z,67.93
2018-05-17T05:10:39.801Z,56.67
2018-05-17T05:13:08.514Z,48.85
2018-05-17T05:15:36.014Z,56.10
2018-05-17T05:18:03.419Z,57.43
2018-05-17T05:20:32.352Z,61.07
2018-05-17T05:23:00.533Z,54.50
2018-05-17T05:25:28.717Z,49.33
2018-05-17T05:27:56.936Z,59.17
2018-05-17T05:30:24.393Z,52.33
2018-05-17T05:32:51.894Z,59.90
2018-05-17T05:35:19.316Z,47.73
2018-05-17T05:37:47.537Z,66.90
2018-05-17T05:40:15.003Z,50.37
2018-05-17T05:42:42.425Z,66.63
2018-05-17T05:45:10.657Z,56.43
2018-05-17T05:47:39.122Z,52.77
2018-05-17T05:50:07.302Z,54.97
2018-05-17T05:52:35.495Z,56.33
2018-05-17T05:55:03.675Z,53.77
2018-05-17T05:57:31.888Z,46.40
2018-05-17T05:59:59.309Z,51.97
2018-05-17T06:02:26.976Z,48.43
2018-05-17T06:04:54.390Z,53.23
2018-05-17T06:07:21.814Z,52.70
2018-05-17T06:09:49.330Z,59.03
2018-05-17T06:12:17.503Z,53.50
2018-05-17T06:14:44.926Z,50.53
2018-05-17T06:17:12.346Z,47.77
2018-05-17T06:19:39.756Z,48.37
2018-05-17T06:22:07.167Z,54.63
2018-05-17T06:24:35.354Z,46.37
2018-05-17T06:27:03.539Z,55.13
2018-05-17T06:29:31.724Z,48.07
2018-05-17T06:31:59.932Z,66.47
2018-05-17T06:34:27.410Z,53.97
2018-05-17T06:36:54.834Z,51.27
2018-05-17T06:39:22.251Z,39.03
2018-05-17T06:41:49.660Z,47.13
2018-05-17T06:44:17.098Z,41.60
2018-05-17T06:46:44.536Z,50.93
2018-05-17T06:49:11.953Z,46.00
2018-05-17T06:51:39.363Z,51.93
2018-05-17T06:54:06.790Z,44.30
2018-05-17T06:56:34.215Z,51.90
2018-05-17T06:59:01.685Z,43.17
2018-05-17T07:01:29.162Z,39.60
2018-05-17T07:03:56.614Z,47.40
2018-05-17T07:06:24.092Z,45.33
2018-05-17T07:08:52.310Z,52.83
2018-05-17T07:11:19.723Z,49.43
2018-05-17T07:13:47.894Z,53.73
2018-05-17T07:16:15.407Z,46.40
2018-05-17T07:18:43.255Z,45.73
2018-05-17T07:21:10.220Z,54.80
2018-05-17T07:23:37.647Z,46.43
2018-05-17T07:26:05.065Z,36.77
2018-05-17T07:28:32.496Z,45.07
2018-05-17T07:30:59.926Z,42.60
2018-05-17T07:33:27.382Z,45.90
2018-05-17T07:35:54.793Z,45.90
2018-05-17T07:38:22.212Z,51.40
2018-05-17T07:40:49.686Z,43.13
2018-05-17T07:43:17.147Z,46.83
2018-05-17T07:45:44.587Z,39.50
2018-05-17T07:48:12.188Z,39.10
2018-05-17T07:50:40.657Z,43.45
2018-05-17T07:53:09.752Z,44.20
2018-05-17T07:55:38.070Z,50.23
2018-05-17T07:58:05.404Z,38.90
2018-05-17T08:00:32.843Z,48.63
2018-05-17T08:03:00.262Z,52.70
2018-05-17T08:05:28.450Z,47.90
2018-05-17T08:07:56.632Z,47.33
2018-05-17T08:10:24.804Z,37.83
2018-05-17T08:12:53.033Z,38.87
2018-05-17T08:15:20.463Z,51.47
2018-05-17T08:17:47.880Z,49.33
2018-05-17T08:20:15.334Z,35.08
2018-05-17T08:22:42.797Z,47.17
2018-05-17T08:25:10.978Z,45.20
2018-05-17T08:27:38.392Z,60.63
2018-05-17T08:30:05.855Z,63.03
2018-05-17T08:32:33.261Z,44.60
2018-05-17T08:35:01.443Z,41.63
2018-05-17T08:37:28.859Z,38.20
2018-05-17T08:39:56.260Z,40.87
2018-05-17T08:42:23.697Z,40.23
2018-05-17T08:44:51.160Z,40.40
2018-05-17T08:47:18.617Z,38.97
2018-05-17T08:49:46.098Z,45.93
2018-05-17T08:52:13.523Z,42.80
2018-05-17T08:54:40.938Z,46.63
2018-05-17T08:57:08.400Z,47.67
2018-05-17T08:59:35.877Z,54.10
2018-05-17T09:02:03.296Z,38.93
2018-05-17T09:04:31.516Z,42.53
2018-05-17T09:06:59.670Z,50.37
2018-05-17T09:09:27.092Z,34.37
2018-05-17T09:11:54.505Z,51.07
2018-05-17T09:14:21.915Z,46.53
2018-05-17T09:16:49.345Z,40.28
2018-05-17T09:19:16.776Z,39.27
2018-05-17T09:21:44.260Z,38.60
2018-05-17T09:24:11.671Z,49.63
2018-05-17T09:26:40.786Z,48.70
2018-05-17T09:29:09.003Z,36.27
2018-05-17T09:31:36.392Z,41.67
2018-05-17T09:34:03.823Z,33.53
2018-05-17T09:36:31.249Z,37.00
2018-05-17T09:38:58.660Z,49.30
2018-05-17T09:41:26.092Z,41.57
2018-05-17T09:43:53.506Z,38.60
2018-05-17T09:46:20.924Z,41.60
2018-05-17T09:48:48.349Z,37.17
2018-05-17T09:51:15.808Z,42.60
2018-05-17T09:53:43.969Z,35.97
2018-05-17T09:56:12.177Z,49.73
2018-05-17T09:58:39.595Z,39.03
2018-05-17T10:01:07.105Z,42.57
2018-05-17T10:03:35.289Z,36.83
2018-05-17T10:06:03.475Z,35.57
2018-05-17T10:08:30.913Z,39.07
2018-05-17T10:10:58.427Z,41.50
2018-05-17T10:13:26.589Z,32.80
2018-05-17T10:15:54.772Z,34.00
2018-05-17T10:18:22.942Z,44.07
2018-05-17T10:20:50.365Z,39.83
2018-05-17T10:23:17.788Z,40.03
2018-05-17T10:25:46.007Z,46.63
2018-05-17T10:28:13.468Z,46.83
2018-05-17T10:30:42.457Z,51.70
2018-05-17T10:33:11.591Z,44.93
2018-05-17T10:35:39.782Z,41.63
2018-05-17T10:38:07.209Z,32.90
2018-05-17T10:40:37.579Z,52.93
2018-05-17T10:43:04.997Z,44.40
2018-05-17T10:45:33.187Z,41.87
2018-05-17T10:48:00.617Z,40.67
2018-05-17T10:50:28.024Z,45.03
2018-05-17T10:52:55.457Z,48.47
2018-05-17T10:55:22.877Z,36.17
2018-05-17T10:57:51.044Z,38.20
2018-05-17T11:00:18.668Z,46.37
2018-05-17T11:02:46.841Z,51.37
2018-05-17T11:05:14.331Z,41.53
2018-05-17T11:07:42.904Z,67.67
2018-05-17T11:10:10.351Z,34.63
2018-05-17T11:12:37.760Z,42.53
2018-05-17T11:15:05.318Z,45.17
2018-05-17T11:17:32.910Z,40.73
2018-05-17T11:20:00.373Z,50.40
2018-05-17T11:22:27.831Z,40.40
2018-05-17T11:24:56.034Z,49.03
2018-05-17T11:27:23.421Z,43.37
2018-05-17T11:29:50.833Z,44.00
2018-05-17T11:32:19.034Z,43.87
2018-05-17T11:34:47.229Z,59.23
2018-05-17T11:37:14.627Z,44.27
2018-05-17T11:39:43.404Z,42.45
2018-05-17T11:42:10.859Z,42.27
2018-05-17T11:44:39.052Z,50.20
2018-05-17T11:47:06.468Z,48.77
2018-05-17T11:49:33.885Z,38.47
2018-05-17T11:52:01.300Z,42.27
2018-05-17T11:54:28.829Z,40.43
2018-05-17T11:56:56.289Z,34.75
2018-05-17T11:59:23.716Z,37.30
2018-05-17T12:01:51.924Z,42.73
2018-05-17T12:04:20.102Z,36.87
2018-05-17T12:06:48.292Z,38.07
2018-05-17T12:09:16.489Z,34.77
2018-05-17T12:11:43.925Z,43.60
2018-05-17T12:14:11.348Z,43.23
2018-05-17T12:16:38.807Z,35.50
2018-05-17T12:19:06.212Z,38.70
2018-05-17T12:21:33.747Z,34.13
2018-05-17T12:24:01.168Z,37.50
2018-05-17T12:26:28.585Z,40.33
2018-05-17T12:28:56.068Z,37.20
2018-05-17T12:31:23.519Z,34.40
2018-05-17T12:33:51.846Z,43.53
2018-05-17T12:36:19.227Z,37.50
2018-05-17T12:38:46.770Z,37.33
2018-05-17T12:41:14.209Z,28.43
2018-05-17T12:43:41.684Z,34.57
2018-05-17T12:46:09.090Z,32.23
2018-05-17T12:48:36.518Z,40.20
2018-05-17T12:51:04.093Z,39.93
2018-05-17T12:53:32.261Z,34.93
2018-05-17T12:56:00.449Z,30.03
2018-05-17T12:58:28.694Z,45.67
2018-05-17T13:00:56.818Z,28.80
2018-05-17T13:03:25.005Z,24.23
2018-05-17T13:05:52.425Z,37.83
2018-05-17T13:08:19.957Z,27.87
2018-05-17T13:10:47.401Z,31.40
2018-05-17T13:13:15.618Z,27.80
2018-05-17T13:15:44.613Z,40.97
2018-05-17T13:18:13.758Z,30.63
2018-05-17T13:20:41.182Z,26.40
2018-05-17T13:23:09.390Z,27.37
2018-05-17T13:25:36.796Z,32.37
2018-05-17T13:28:04.331Z,33.03
2018-05-17T13:30:31.795Z,28.90
2018-05-17T13:32:59.959Z,28.67
2018-05-17T13:35:28.265Z,30.27
2018-05-17T13:37:56.419Z,30.70
2018-05-17T13:40:24.636Z,33.07
2018-05-17T13:42:52.050Z,26.20
2018-05-17T13:45:19.488Z,28.63
2018-05-17T13:47:46.998Z,30.40
2018-05-17T13:50:14.410Z,28.97
2018-05-17T13:52:41.816Z,34.73
2018-05-17T13:55:09.252Z,29.97
2018-05-17T13:57:36.681Z,27.80
2018-05-17T14:00:04.852Z,35.43
2018-05-17T14:02:32.438Z,27.03
2018-05-17T14:04:59.751Z,29.67
2018-05-17T14:07:27.199Z,31.90
2018-05-17T14:09:54.604Z,28.97
2018-05-17T14:12:22.020Z,26.10
2018-05-17T14:14:50.321Z,22.30
2018-05-17T14:17:17.800Z,28.10
2018-05-17T14:19:45.212Z,25.83
2018-05-17T14:22:12.655Z,22.50
2018-05-17T14:24:40.075Z,30.67
2018-05-17T14:27:08.250Z,33.07
2018-05-17T14:29:35.706Z,28.07
2018-05-17T14:32:03.081Z,26.97
2018-05-17T14:34:30.497Z,23.67
2018-05-17T14:36:57.921Z,34.10
2018-05-17T14:39:25.365Z,25.40
2018-05-17T14:41:52.788Z,31.80
2018-05-17T14:44:20.267Z,25.10
2018-05-17T14:46:48.468Z,37.13
2018-05-17T14:49:15.937Z,27.27
2018-05-17T14:51:43.387Z,28.73
2018-05-17T14:54:11.552Z,31.70
2018-05-17T14:56:39.737Z,31.67
2018-05-17T14:59:07.916Z,36.23
2018-05-17T15:01:35.413Z,25.30
2018-05-17T15:04:02.884Z,24.60
2018-05-17T15:06:30.373Z,23.63
2018-05-17T15:08:57.772Z,30.17
2018-05-17T15:11:25.306Z,26.93
2018-05-17T15:13:52.689Z,23.00
2018-05-17T15:16:20.803Z,28.60
2018-05-17T15:18:48.312Z,28.30
2018-05-17T15:21:16.027Z,23.60
2018-05-17T15:23:43.421Z,27.10
2018-05-17T15:26:10.839Z,23.97
2018-05-17T15:28:38.251Z,23.10
2018-05-17T15:31:05.672Z,26.90
2018-05-17T15:33:33.103Z,32.80
2018-05-17T15:36:01.292Z,26.35
2018-05-17T15:38:29.471Z,25.17
2018-05-17T15:40:57.681Z,24.37
2018-05-17T15:43:25.100Z,24.33
2018-05-17T15:45:52.738Z,29.77
2018-05-17T15:48:20.930Z,23.97
2018-05-17T15:50:48.488Z,23.80
2018-05-17T15:53:16.657Z,18.63
2018-05-17T15:55:44.110Z,23.23
2018-05-17T15:58:11.609Z,19.67
2018-05-17T16:00:39.021Z,17.53
2018-05-17T16:03:06.453Z,25.57
2018-05-17T16:05:33.914Z,34.17
2018-05-17T16:08:02.103Z,53.60
2018-05-17T16:10:29.533Z,33.83
2018-05-17T16:12:56.945Z,36.50
2018-05-17T16:15:24.523Z,34.90
2018-05-17T16:17:52.578Z,39.83
2018-05-17T16:20:20.769Z,35.97
2018-05-17T16:22:48.248Z,42.73
2018-05-17T16:25:17.156Z,31.00
2018-05-17T16:27:44.664Z,33.07
2018-05-17T16:30:12.140Z,30.13
2018-05-17T16:32:39.562Z,42.80
2018-05-17T16:35:07.032Z,35.53
2018-05-17T16:37:35.192Z,30.47
2018-05-17T16:40:02.681Z,33.53
2018-05-17T16:42:30.122Z,35.07
2018-05-17T16:44:58.296Z,35.43
2018-05-17T16:47:25.725Z,40.50
2018-05-17T16:49:53.148Z,43.37
2018-05-17T16:52:21.376Z,37.37
2018-05-17T16:54:48.832Z,44.80
2018-05-17T16:57:17.540Z,46.83
2018-05-17T16:59:44.994Z,44.80
2018-05-17T17:02:12.457Z,54.60
2018-05-17T17:04:39.935Z,59.30
2018-05-17T17:07:07.315Z,64.33
2018-05-17T17:09:34.718Z,57.17
2018-05-17T17:12:02.135Z,50.67
2018-05-17T17:14:29.708Z,59.07
2018-05-17T17:16:57.893Z,49.73
2018-05-17T17:19:25.319Z,52.45
2018-05-17T17:21:52.830Z,56.43
2018-05-17T17:24:20.253Z,55.73
2018-05-17T17:26:47.771Z,60.80
2018-05-17T17:29:15.241Z,58.53
2018-05-17T17:31:43.532Z,42.97
2018-05-17T17:34:11.063Z,50.03
2018-05-17T17:36:38.572Z,50.67
2018-05-17T17:39:05.928Z,43.67
2018-05-17T17:41:33.364Z,39.30
2018-05-17T17:44:01.553Z,38.43
2018-05-17T17:46:29.734Z,56.03
2018-05-17T17:48:57.164Z,49.20
2018-05-17T17:51:24.617Z,41.40
2018-05-17T17:53:52.073Z,40.47
2018-05-17T17:56:19.502Z,54.10
2018-05-17T17:58:48.428Z,45.28
2018-05-17T18:01:17.549Z,40.30
2018-05-17T18:03:44.973Z,43.47
2018-05-17T18:06:12.400Z,43.80
2018-05-17T18:08:39.840Z,44.27
2018-05-17T18:11:08.040Z,47.90
2018-05-17T18:13:35.456Z,41.33
2018-05-17T18:16:02.884Z,41.63
2018-05-17T18:18:30.354Z,45.60
2018-05-17T18:20:57.788Z,41.57
2018-05-17T18:23:25.204Z,47.33
2018-05-17T18:25:53.438Z,46.87
2018-05-17T18:28:20.848Z,44.50
2018-05-17T18:30:48.269Z,52.73
2018-05-17T18:33:15.697Z,42.83
2018-05-17T18:35:43.116Z,45.87
2018-05-17T18:38:11.313Z,44.93
2018-05-17T18:40:39.500Z,41.03
2018-05-17T18:43:07.733Z,42.57
2018-05-17T18:45:35.142Z,40.37
2018-05-17T18:48:02.570Z,46.10
2018-05-17T18:50:30.013Z,50.03
2018-05-17T18:52:57.441Z,42.00
2018-05-17T18:55:24.860Z,40.63
2018-05-17T18:57:52.402Z,45.10
2018-05-17T19:00:19.924Z,36.87
2018-05-17T19:02:47.362Z,39.70
2018-05-17T19:05:15.531Z,48.53
2018-05-17T19:07:43.712Z,44.20
2018-05-17T19:10:11.890Z,45.07
2018-05-17T19:12:40.095Z,41.67
2018-05-17T19:15:07.541Z,46.47
2018-05-17T19:17:35.795Z,46.67
2018-05-17T19:20:03.205Z,49.40
2018-05-17T19:22:31.400Z,42.33
2018-05-17T19:24:59.599Z,39.37
2018-05-17T19:27:27.025Z,39.33
2018-05-17T19:29:54.458Z,44.70
2018-05-17T19:32:21.881Z,39.13
2018-05-17T19:34:50.092Z,48.20
2018-05-17T19:37:17.697Z,45.47
2018-05-17T19:39:45.006Z,39.07
2018-05-17T19:42:13.210Z,43.33
2018-05-17T19:44:40.684Z,43.27
2018-05-17T19:47:08.152Z,49.85
2018-05-17T19:49:35.562Z,42.27
2018-05-17T19:52:03.083Z,41.13
2018-05-17T19:54:30.502Z,42.57
2018-05-17T19:56:57.921Z,38.43
2018-05-17T19:59:25.436Z,39.10
2018-05-17T20:01:52.871Z,32.80
2018-05-17T20:04:20.316Z,42.23
2018-05-17T20:06:49.436Z,40.70
2018-05-17T20:09:16.872Z,40.73
2018-05-17T20:11:44.382Z,41.23
2018-05-17T20:14:11.805Z,47.00
2018-05-17T20:16:39.245Z,38.47
2018-05-17T20:19:06.651Z,43.90
2018-05-17T20:21:34.845Z,36.67
2018-05-17T20:24:03.069Z,42.03
2018-05-17T20:26:30.480Z,39.90
2018-05-17T20:28:58.712Z,39.17
2018-05-17T20:31:26.129Z,41.37
2018-05-17T20:33:53.563Z,30.47
2018-05-17T20:36:20.976Z,31.00
2018-05-17T20:38:48.424Z,42.80
2018-05-17T20:41:15.877Z,34.93
2018-05-17T20:43:43.306Z,38.87
2018-05-17T20:46:11.491Z,39.27
2018-05-17T20:48:38.921Z,34.20
2018-05-17T20:51:06.336Z,36.03
2018-05-17T20:53:33.757Z,49.23
2018-05-17T20:56:01.284Z,38.00
2018-05-17T20:58:28.694Z,32.77
2018-05-17T21:00:56.368Z,43.97
2018-05-17T21:03:23.782Z,42.23
2018-05-17T21:05:51.267Z,45.83
2018-05-17T21:08:18.715Z,38.80
2018-05-17T21:10:46.957Z,36.87
2018-05-17T21:13:14.388Z,43.00
2018-05-17T21:15:41.821Z,35.43
2018-05-17T21:18:10.045Z,37.77
2018-05-17T21:20:37.512Z,38.40
2018-05-17T21:23:04.932Z,44.73
2018-05-17T21:25:32.352Z,32.40
2018-05-17T21:27:59.780Z,31.87
2018-05-17T21:30:27.997Z,29.13
2018-05-17T21:32:56.193Z,35.70
2018-05-17T21:35:23.656Z,37.83
2018-05-17T21:37:51.076Z,29.90
2018-05-17T21:40:18.605Z,36.07
2018-05-17T21:42:46.028Z,27.90
2018-05-17T21:45:13.459Z,37.33
2018-05-17T21:47:40.883Z,37.07
2018-05-17T21:50:09.064Z,33.77
2018-05-17T21:52:37.255Z,48.27
2018-05-17T21:55:04.676Z,39.67
2018-05-17T21:57:32.102Z,32.27
2018-05-17T21:59:59.582Z,31.23
2018-05-17T22:02:26.996Z,25.97
2018-05-17T22:04:54.436Z,36.80
2018-05-17T22:07:21.840Z,29.83
2018-05-17T22:09:50.988Z,37.37
2018-05-17T22:12:18.429Z,44.60
2018-05-17T22:14:46.613Z,29.07
2018-05-17T22:17:15.369Z,36.00
2018-05-17T22:19:42.812Z,31.33
2018-05-17T22:22:10.299Z,36.87
2018-05-17T22:24:37.708Z,32.20
2018-05-17T22:27:05.898Z,38.30
2018-05-17T22:29:33.355Z,31.73
2018-05-17T22:32:00.778Z,41.17
2018-05-17T22:34:28.237Z,34.53
2018-05-17T22:36:55.707Z,38.00
2018-05-17T22:39:23.124Z,29.53
2018-05-17T22:41:51.225Z,34.45
2018-05-17T22:44:19.429Z,28.67
2018-05-17T22:46:47.669Z,36.93
2018-05-17T22:49:15.113Z,29.90
2018-05-17T22:51:42.657Z,27.40
2018-05-17T22:54:09.996Z,34.97
2018-05-17T22:56:49.279Z,31.83
2018-05-17T22:59:16.705Z,28.20
2018-05-17T23:01:44.121Z,40.90
2018-05-17T23:04:11.536Z,28.20
2018-05-17T23:06:38.990Z,30.33
2018-05-17T23:09:06.364Z,37.53
2018-05-17T23:11:33.791Z,23.70
2018-05-17T23:14:01.201Z,27.03
2018-05-17T23:16:28.624Z,30.20
2018-05-17T23:18:56.038Z,35.87
2018-05-17T23:21:23.574Z,29.10
2018-05-17T23:23:52.536Z,31.52
2018-05-17T23:26:21.657Z,39.30
2018-05-17T23:28:49.836Z,29.37
2018-05-17T23:31:18.019Z,37.23
2018-05-17T23:33:45.437Z,34.67
2018-05-17T23:36:12.868Z,31.73
2018-05-17T23:38:41.045Z,39.97
2018-05-17T23:41:20.919Z,31.80
2018-05-17T23:43:48.346Z,37.73
2018-05-17T23:46:15.878Z,39.57
2018-05-17T23:48:43.291Z,53.23
2018-05-17T23:51:11.498Z,40.57
2018-05-17T23:53:39.660Z,31.90
2018-05-17T23:56:07.089Z,24.07
2018-05-17T23:58:34.504Z,32.20
